createdAt,value
2018-02-17T00:01:44.900Z,29.50
2018-02-17T00:04:15.625Z,30.80
2018-02-17T00:06:45.842Z,29.07
2018-02-17T00:09:15.662Z,30.00
2018-02-17T00:11:45.883Z,29.43
2018-02-17T00:14:16.174Z,31.00
2018-02-17T00:16:45.948Z,30.33
2018-02-17T00:19:16.271Z,30.03
2018-02-17T00:21:46.637Z,30.07
2018-02-17T00:24:17.139Z,29.83
2018-02-17T00:26:47.916Z,28.80
2018-02-17T00:29:18.541Z,30.13
2018-02-17T00:31:48.965Z,30.70
2018-02-17T00:34:19.311Z,29.00
2018-02-17T00:36:49.760Z,29.80
2018-02-17T00:39:21.239Z,29.73
2018-02-17T00:41:51.524Z,31.40
2018-02-17T00:44:21.423Z,32.07
2018-02-17T00:46:51.762Z,31.50
2018-02-17T00:49:22.351Z,32.57
2018-02-17T00:51:52.464Z,32.27
2018-02-17T00:54:22.928Z,31.40
2018-02-17T00:56:53.291Z,29.80
2018-02-17T00:59:23.810Z,28.33
2018-02-17T01:01:54.260Z,29.23
2018-02-17T01:04:24.905Z,29.67
2018-02-17T01:06:55.303Z,29.30
2018-02-17T01:09:25.994Z,29.37
2018-02-17T01:11:56.436Z,28.30
2018-02-17T01:14:26.965Z,27.97
2018-02-17T01:16:56.835Z,29.40
2018-02-17T01:19:27.136Z,29.63
2018-02-17T01:21:57.527Z,28.90
2018-02-17T01:24:27.748Z,31.93
2018-02-17T01:26:58.171Z,29.47
2018-02-17T01:29:28.288Z,28.23
2018-02-17T01:31:59.017Z,29.20
2018-02-17T01:34:29.596Z,28.97
2018-02-17T01:37:00.169Z,27.07
2018-02-17T01:39:30.862Z,27.53
2018-02-17T01:42:01.558Z,26.93
2018-02-17T01:44:32.170Z,25.63
2018-02-17T01:47:02.859Z,25.53
2018-02-17T01:49:33.428Z,25.27
2018-02-17T01:52:03.856Z,26.33
2018-02-17T01:54:34.287Z,26.23
2018-02-17T01:57:04.581Z,25.23
2018-02-17T01:59:34.808Z,25.67
2018-02-17T02:02:05.416Z,24.03
2018-02-17T02:04:35.445Z,27.03
2018-02-17T02:07:06.206Z,26.70
2018-02-17T02:09:36.648Z,27.97
2018-02-17T02:12:07.114Z,29.07
2018-02-17T02:14:37.466Z,31.10
2018-02-17T02:17:08.060Z,30.70
2018-02-17T02:19:38.418Z,29.83
2018-02-17T02:22:08.750Z,30.53
2018-02-17T02:24:38.748Z,30.80
2018-02-17T02:27:09.199Z,31.13
2018-02-17T02:29:39.632Z,28.93
2018-02-17T02:32:10.076Z,29.20
2018-02-17T02:34:40.547Z,27.30
2018-02-17T02:37:11.027Z,27.60
2018-02-17T02:39:41.435Z,26.13
2018-02-17T02:42:14.934Z,26.80
2018-02-17T02:44:45.456Z,27.17
2018-02-17T02:47:16.194Z,25.63
2018-02-17T02:49:46.821Z,25.10
2018-02-17T02:52:17.313Z,24.10
2018-02-17T02:54:47.701Z,26.53
2018-02-17T02:57:18.104Z,26.93
2018-02-17T02:59:48.386Z,25.67
2018-02-17T03:02:18.616Z,27.53
2018-02-17T03:04:49.031Z,27.50
2018-02-17T03:07:19.427Z,28.13
2018-02-17T03:09:49.867Z,28.00
2018-02-17T03:12:20.255Z,26.77
2018-02-17T03:14:50.414Z,27.50
2018-02-17T03:17:20.232Z,26.53
2018-02-17T03:19:50.481Z,24.63
2018-02-17T03:22:20.808Z,25.87
2018-02-17T03:24:51.433Z,25.50
2018-02-17T03:27:21.890Z,24.20
2018-02-17T03:29:51.764Z,25.80
2018-02-17T03:32:22.469Z,25.60
2018-02-17T03:34:52.828Z,27.00
2018-02-17T03:37:23.081Z,25.47
2018-02-17T03:39:53.839Z,24.73
2018-02-17T03:42:24.566Z,23.53
2018-02-17T03:44:54.625Z,23.93
2018-02-17T03:47:25.188Z,24.43
2018-02-17T03:49:55.979Z,24.40
2018-02-17T03:52:26.620Z,22.97
2018-02-17T03:54:57.009Z,24.33
2018-02-17T03:57:26.782Z,23.80
2018-02-17T03:59:57.582Z,23.90
2018-02-17T04:02:28.195Z,23.13
2018-02-17T04:04:58.748Z,23.77
2018-02-17T04:07:28.974Z,23.03
2018-02-17T04:09:59.110Z,21.90
2018-02-17T04:12:29.921Z,23.23
2018-02-17T04:15:00.107Z,23.73
2018-02-17T04:17:30.556Z,24.37
2018-02-17T04:20:00.903Z,23.00
2018-02-17T04:22:31.421Z,22.30
2018-02-17T04:25:01.874Z,23.83
2018-02-17T04:27:32.372Z,23.03
2018-02-17T04:30:02.288Z,25.13
2018-02-17T04:32:32.700Z,26.20
2018-02-17T04:35:03.116Z,24.17
2018-02-17T04:37:33.487Z,25.97
2018-02-17T04:40:05.065Z,26.30
2018-02-17T04:42:37.702Z,23.73
2018-02-17T04:45:13.854Z,23.97
2018-02-17T04:47:49.982Z,25.47
2018-02-17T04:50:25.988Z,26.17
2018-02-17T04:53:02.451Z,24.97
2018-02-17T04:55:49.097Z,23.80
2018-02-17T04:58:35.286Z,28.07
2018-02-17T05:01:25.493Z,26.87
2018-02-17T05:04:07.729Z,25.63
2018-02-17T05:06:44.169Z,25.13
2018-02-17T05:09:14.645Z,26.63
2018-02-17T05:11:44.519Z,24.60
2018-02-17T05:14:30.418Z,24.10
2018-02-17T05:17:03.903Z,25.33
2018-02-17T05:19:47.461Z,26.13
2018-02-17T05:22:18.975Z,24.63
2018-02-17T05:24:50.443Z,25.63
2018-02-17T05:27:25.830Z,25.77
2018-02-17T05:29:57.060Z,25.57
2018-02-17T05:32:36.793Z,23.87
2018-02-17T05:35:10.394Z,25.10
2018-02-17T05:37:40.157Z,26.33
2018-02-17T05:40:10.818Z,24.73
2018-02-17T05:42:42.472Z,24.77
2018-02-17T05:45:12.849Z,25.27
2018-02-17T05:47:44.598Z,25.43
2018-02-17T05:50:16.123Z,25.67
2018-02-17T05:52:45.868Z,27.00
2018-02-17T05:55:15.676Z,28.40
2018-02-17T05:57:45.550Z,29.53
2018-02-17T06:00:15.275Z,28.47
2018-02-17T06:02:45.052Z,26.67
2018-02-17T06:05:14.879Z,28.33
2018-02-17T06:07:44.703Z,30.70
2018-02-17T06:10:14.503Z,34.57
2018-02-17T06:12:44.286Z,29.57
2018-02-17T06:15:14.079Z,28.53
2018-02-17T06:17:43.880Z,32.60
2018-02-17T06:20:13.676Z,32.63
2018-02-17T06:22:43.414Z,34.43
2018-02-17T06:25:13.165Z,33.20
2018-02-17T06:27:42.986Z,29.90
2018-02-17T06:30:12.737Z,30.63
2018-02-17T06:32:42.562Z,29.03
2018-02-17T06:35:12.416Z,32.00
2018-02-17T06:37:42.169Z,31.47
2018-02-17T06:40:11.927Z,32.13
2018-02-17T06:42:41.627Z,33.20
2018-02-17T06:45:11.380Z,34.60
2018-02-17T06:47:41.127Z,34.43
2018-02-17T06:50:10.901Z,36.20
2018-02-17T06:52:40.645Z,39.43
2018-02-17T06:55:10.600Z,48.50
2018-02-17T06:57:40.920Z,48.87
2018-02-17T07:00:11.057Z,51.37
2018-02-17T07:02:41.260Z,54.87
2018-02-17T07:05:11.469Z,55.00
2018-02-17T07:07:41.541Z,53.93
2018-02-17T07:10:11.445Z,59.00
2018-02-17T07:12:41.213Z,64.47
2018-02-17T07:15:11.090Z,59.20
2018-02-17T07:17:41.222Z,58.30
2018-02-17T07:20:11.558Z,62.50
2018-02-17T07:22:42.091Z,65.23
2018-02-17T07:25:12.428Z,61.80
2018-02-17T07:27:42.802Z,55.47
2018-02-17T07:30:13.297Z,55.53
2018-02-17T07:32:43.822Z,59.90
2018-02-17T07:35:14.235Z,61.73
2018-02-17T07:37:44.375Z,63.67
2018-02-17T07:40:14.561Z,58.30
2018-02-17T07:42:45.062Z,55.73
2018-02-17T07:45:15.351Z,52.40
2018-02-17T07:47:46.109Z,49.80
2018-02-17T07:50:16.471Z,46.57
2018-02-17T07:52:46.930Z,43.67
2018-02-17T07:55:17.439Z,42.63
2018-02-17T07:57:47.565Z,41.33
2018-02-17T08:00:18.131Z,42.60
2018-02-17T08:02:48.460Z,48.90
2018-02-17T08:05:18.949Z,56.87
2018-02-17T08:07:49.271Z,53.07
2018-02-17T08:10:19.160Z,53.77
2018-02-17T08:12:49.429Z,51.90
2018-02-17T08:15:19.556Z,50.03
2018-02-17T08:17:49.458Z,49.03
2018-02-17T08:20:20.223Z,47.10
2018-02-17T08:22:51.357Z,47.73
2018-02-17T08:25:21.590Z,47.23
2018-02-17T08:27:52.011Z,45.10
2018-02-17T08:30:22.523Z,43.13
2018-02-17T08:32:53.462Z,44.20
2018-02-17T08:35:24.088Z,40.93
2018-02-17T08:37:54.621Z,35.97
2018-02-17T08:40:24.957Z,33.73
2018-02-17T08:42:55.316Z,29.83
2018-02-17T08:45:25.366Z,30.67
2018-02-17T08:47:56.152Z,28.30
2018-02-17T08:50:26.559Z,27.97
2018-02-17T08:52:57.021Z,25.53
2018-02-17T08:55:26.832Z,22.67
2018-02-17T08:57:57.385Z,22.43
2018-02-17T09:00:27.953Z,22.67
2018-02-17T09:02:58.345Z,22.20
2018-02-17T09:05:28.641Z,22.53
2018-02-17T09:07:59.528Z,22.80
2018-02-17T09:10:41.767Z,21.90
2018-02-17T09:13:12.032Z,23.37
2018-02-17T09:15:42.507Z,24.63
2018-02-17T09:18:12.882Z,24.70
2018-02-17T09:20:43.398Z,25.07
2018-02-17T09:23:13.773Z,24.20
2018-02-17T09:25:43.971Z,24.47
2018-02-17T09:28:14.639Z,23.90
2018-02-17T09:30:45.036Z,22.60
2018-02-17T09:33:15.374Z,22.57
2018-02-17T09:35:45.814Z,21.83
2018-02-17T09:38:16.220Z,22.30
2018-02-17T09:40:46.636Z,22.00
2018-02-17T09:43:17.084Z,22.83
2018-02-17T09:45:47.847Z,23.33
2018-02-17T09:48:18.362Z,23.13
2018-02-17T09:50:48.650Z,22.07
2018-02-17T09:53:19.121Z,21.20
2018-02-17T09:55:49.655Z,22.40
2018-02-17T09:58:20.270Z,22.47
2018-02-17T10:00:50.866Z,21.90
2018-02-17T10:03:21.223Z,23.87
2018-02-17T10:05:51.020Z,24.30
2018-02-17T10:14:05.073Z,19.83
2018-02-17T10:16:35.257Z,21.67
2018-02-17T10:19:05.111Z,23.27
2018-02-17T10:21:35.118Z,23.67
2018-02-17T10:24:04.980Z,23.80
2018-02-17T10:26:35.038Z,24.27
2018-02-17T10:29:04.991Z,24.70
2018-02-17T10:31:35.006Z,24.20
2018-02-17T10:34:04.835Z,22.47
2018-02-17T10:36:35.255Z,20.57
2018-02-17T10:39:05.613Z,20.40
2018-02-17T10:41:35.925Z,22.40
2018-02-17T10:44:06.256Z,24.13
2018-02-17T10:46:36.585Z,23.07
2018-02-17T10:49:06.751Z,23.37
2018-02-17T10:51:36.637Z,22.97
2018-02-17T10:54:07.352Z,28.00
2018-02-17T10:56:37.740Z,28.53
2018-02-17T10:59:08.309Z,26.63
2018-02-17T11:01:38.926Z,27.17
2018-02-17T11:04:09.301Z,25.87
2018-02-17T11:06:39.523Z,25.27
2018-02-17T11:09:09.931Z,25.20
2018-02-17T11:11:40.141Z,25.33
2018-02-17T11:14:09.960Z,25.07
2018-02-17T11:16:40.020Z,26.47
2018-02-17T11:19:10.554Z,28.30
2018-02-17T11:21:41.356Z,27.70
2018-02-17T11:24:11.779Z,27.30
2018-02-17T11:26:42.198Z,26.50
2018-02-17T11:29:12.469Z,26.70
2018-02-17T11:31:42.775Z,27.07
2018-02-17T11:34:13.274Z,29.23
2018-02-17T11:36:43.692Z,27.73
2018-02-17T11:39:14.029Z,26.10
2018-02-17T11:41:44.780Z,25.53
2018-02-17T11:44:15.141Z,25.23
2018-02-17T11:46:45.574Z,24.50
2018-02-17T11:49:15.875Z,24.83
2018-02-17T11:51:45.621Z,23.77
2018-02-17T11:54:15.792Z,22.80
2018-02-17T11:56:45.455Z,24.77
2018-02-17T11:59:15.336Z,24.37
2018-02-17T12:01:45.039Z,23.50
2018-02-17T12:04:15.224Z,22.80
2018-02-17T12:06:45.345Z,23.33
2018-02-17T12:09:15.098Z,23.80
2018-02-17T12:11:44.813Z,23.67
2018-02-17T12:14:14.496Z,25.17
2018-02-17T12:16:45.037Z,24.47
2018-02-17T12:19:14.707Z,23.50
2018-02-17T12:21:44.533Z,23.33
2018-02-17T12:24:14.720Z,22.27
2018-02-17T12:26:45.098Z,22.47
2018-02-17T12:29:14.803Z,23.07
2018-02-17T12:31:44.567Z,22.50
2018-02-17T12:34:14.348Z,24.27
2018-02-17T12:36:44.286Z,22.67
2018-02-17T12:39:14.217Z,23.73
2018-02-17T12:41:44.150Z,22.90
2018-02-17T12:44:13.874Z,22.53
2018-02-17T12:46:43.559Z,23.17
2018-02-17T12:49:13.247Z,24.03
2018-02-17T12:51:42.929Z,25.57
2018-02-17T12:54:13.507Z,26.63
2018-02-17T12:56:43.219Z,23.40
2018-02-17T12:59:13.245Z,25.20
2018-02-17T13:01:42.999Z,25.77
2018-02-17T13:04:12.715Z,24.60
2018-02-17T13:06:42.412Z,24.13
2018-02-17T13:09:12.137Z,24.90
2018-02-17T13:11:42.609Z,22.90
2018-02-17T13:14:12.805Z,22.47
2018-02-17T13:16:43.183Z,23.67
2018-02-17T13:19:13.569Z,23.43
2018-02-17T13:21:44.008Z,23.43
2018-02-17T13:24:14.414Z,22.37
2018-02-17T13:26:45.026Z,24.00
2018-02-17T13:29:14.752Z,23.20
2018-02-17T13:31:44.469Z,22.70
2018-02-17T13:34:14.770Z,23.37
2018-02-17T13:43:33.051Z,22.03
2018-02-17T13:46:03.091Z,22.93
2018-02-17T13:48:32.765Z,21.80
2018-02-17T13:51:02.454Z,21.43
2018-02-17T13:53:32.704Z,21.77
2018-02-17T13:56:03.018Z,20.97
2018-02-17T13:58:32.812Z,20.93
2018-02-17T14:01:03.255Z,20.67
2018-02-17T14:03:33.403Z,20.07
2018-02-17T14:06:03.086Z,19.03
2018-02-17T14:08:33.210Z,20.87
2018-02-17T14:11:02.960Z,21.33
2018-02-17T14:13:32.709Z,21.87
2018-02-17T14:16:02.457Z,21.97
2018-02-17T14:18:32.155Z,22.40
2018-02-17T14:21:01.852Z,23.23
2018-02-17T14:23:31.564Z,22.73
2018-02-17T14:26:01.306Z,22.37
2018-02-17T14:28:30.992Z,23.20
2018-02-17T14:31:00.724Z,23.27
2018-02-17T14:33:30.497Z,23.40
2018-02-17T14:36:00.167Z,22.27
2018-02-17T14:38:29.906Z,21.67
2018-02-17T14:40:59.650Z,23.03
2018-02-17T14:43:29.380Z,23.50
2018-02-17T14:45:59.089Z,25.10
2018-02-17T14:48:28.830Z,23.30
2018-02-17T14:50:59.335Z,24.07
2018-02-17T14:53:29.412Z,24.17
2018-02-17T14:55:59.147Z,23.00
2018-02-17T14:58:29.074Z,23.10
2018-02-17T15:00:58.822Z,23.63
2018-02-17T15:03:28.554Z,23.63
2018-02-17T15:05:58.219Z,22.53
2018-02-17T15:08:28.045Z,24.00
2018-02-17T15:10:57.883Z,24.57
2018-02-17T15:13:27.553Z,23.40
2018-02-17T15:15:57.327Z,22.90
2018-02-17T15:18:27.012Z,23.57
2018-02-17T15:20:56.724Z,23.77
2018-02-17T15:23:26.424Z,22.77
2018-02-17T15:25:56.110Z,24.07
2018-02-17T15:28:26.286Z,22.97
2018-02-17T15:30:56.253Z,22.93
2018-02-17T15:33:25.964Z,24.23
2018-02-17T15:35:55.699Z,23.73
2018-02-17T15:38:26.237Z,24.53
2018-02-17T15:40:55.954Z,23.57
2018-02-17T15:43:25.673Z,23.67
2018-02-17T15:45:55.404Z,24.33
2018-02-17T15:48:25.087Z,25.07
2018-02-17T15:50:54.797Z,24.33
2018-02-17T15:53:24.525Z,25.27
2018-02-17T15:55:54.209Z,25.60
2018-02-17T15:58:23.974Z,25.90
2018-02-17T16:00:53.657Z,24.40
2018-02-17T16:03:23.389Z,24.80
2018-02-17T16:05:53.065Z,25.40
2018-02-17T16:08:22.738Z,24.43
2018-02-17T16:10:52.478Z,24.17
2018-02-17T16:13:22.165Z,24.10
2018-02-17T16:15:51.910Z,26.07
2018-02-17T16:18:21.640Z,22.80
2018-02-17T16:20:51.393Z,25.03
2018-02-17T16:23:21.077Z,25.10
2018-02-17T16:25:50.747Z,24.30
2018-02-17T16:28:20.498Z,25.70
2018-02-17T16:30:50.214Z,24.40
2018-02-17T16:33:19.943Z,23.90
2018-02-17T16:35:49.628Z,23.90
2018-02-17T16:38:19.306Z,24.63
2018-02-17T16:40:49.022Z,25.30
2018-02-17T16:43:18.696Z,25.97
2018-02-17T16:45:48.374Z,25.57
2018-02-17T16:48:18.131Z,25.73
2018-02-17T16:50:47.843Z,24.67
2018-02-17T16:53:17.549Z,24.90
2018-02-17T16:55:47.263Z,25.10
2018-02-17T16:58:16.931Z,25.53
2018-02-17T17:00:46.645Z,26.80
2018-02-17T17:03:16.338Z,27.10
2018-02-17T17:05:46.009Z,29.13
2018-02-17T17:08:15.806Z,31.67
2018-02-17T17:10:45.515Z,31.97
2018-02-17T17:13:15.220Z,31.23
2018-02-17T17:15:44.943Z,27.33
2018-02-17T17:18:14.654Z,29.00
2018-02-17T17:20:44.371Z,28.33
2018-02-17T17:23:14.085Z,31.57
2018-02-17T17:25:43.793Z,34.70
2018-02-17T17:28:13.485Z,33.47
2018-02-17T17:30:43.224Z,32.63
2018-02-17T17:33:12.950Z,34.37
2018-02-17T17:35:42.679Z,31.17
2018-02-17T17:38:12.390Z,31.87
2018-02-17T17:40:42.125Z,32.90
2018-02-17T17:43:11.808Z,33.97
2018-02-17T17:45:41.503Z,36.10
2018-02-17T17:48:11.205Z,35.63
2018-02-17T17:50:40.917Z,33.93
2018-02-17T17:53:10.643Z,33.30
2018-02-17T17:55:40.346Z,33.77
2018-02-17T17:58:10.040Z,32.73
2018-02-17T18:00:39.787Z,33.77
2018-02-17T18:03:09.470Z,33.77
2018-02-17T18:05:39.171Z,32.60
2018-02-17T18:08:09.003Z,33.20
2018-02-17T18:10:38.694Z,34.30
2018-02-17T18:13:08.423Z,32.63
2018-02-17T18:15:38.090Z,31.97
2018-02-17T18:18:07.829Z,33.33
2018-02-17T18:20:37.515Z,33.50
2018-02-17T18:23:07.274Z,32.37
2018-02-17T18:25:37.075Z,33.27
2018-02-17T18:28:06.773Z,31.87
2018-02-17T18:30:36.531Z,33.03
2018-02-17T18:33:06.274Z,32.50
2018-02-17T18:35:35.978Z,30.13
2018-02-17T18:38:05.715Z,29.53
2018-02-17T18:40:35.462Z,30.00
2018-02-17T18:43:05.167Z,30.77
2018-02-17T18:45:34.864Z,30.30
2018-02-17T18:48:04.584Z,29.73
2018-02-17T18:50:34.324Z,27.50
2018-02-17T18:53:04.092Z,27.13
2018-02-17T18:55:33.835Z,28.33
2018-02-17T18:58:03.543Z,27.50
2018-02-17T19:00:33.244Z,26.03
2018-02-17T19:03:02.987Z,25.23
2018-02-17T19:05:32.661Z,25.80
2018-02-17T19:08:02.436Z,25.77
2018-02-17T19:10:32.187Z,25.10
2018-02-17T19:13:01.880Z,26.17
2018-02-17T19:15:31.561Z,25.63
2018-02-17T19:18:01.274Z,24.70
2018-02-17T19:20:31.004Z,25.47
2018-02-17T19:23:00.745Z,26.57
2018-02-17T19:25:30.486Z,24.27
2018-02-17T19:28:00.258Z,24.80
2018-02-17T19:30:29.926Z,25.53
2018-02-17T19:32:59.645Z,25.60
2018-02-17T19:35:29.343Z,25.60
2018-02-17T19:37:59.048Z,25.70
2018-02-17T19:40:28.771Z,26.23
2018-02-17T19:42:58.465Z,23.87
2018-02-17T19:45:28.214Z,22.90
2018-02-17T19:47:58.023Z,23.50
2018-02-17T19:50:27.721Z,23.33
2018-02-17T19:52:57.416Z,24.67
2018-02-17T19:55:27.181Z,21.93
2018-02-17T19:57:56.930Z,23.53
2018-02-17T20:00:26.606Z,24.53
2018-02-17T20:02:56.349Z,23.60
2018-02-17T20:05:26.012Z,27.17
2018-02-17T20:07:55.728Z,25.97
2018-02-17T20:10:25.450Z,28.90
2018-02-17T20:12:55.136Z,27.80
2018-02-17T20:15:24.815Z,27.90
2018-02-17T20:17:54.524Z,26.27
2018-02-17T20:20:24.219Z,30.53
2018-02-17T20:22:53.952Z,29.57
2018-02-17T20:25:23.637Z,48.67
2018-02-17T20:27:53.406Z,32.60
2018-02-17T20:30:23.109Z,32.90
2018-02-17T20:32:53.399Z,35.57
2018-02-17T20:35:23.144Z,39.63
2018-02-17T20:37:53.477Z,50.77
2018-02-17T20:40:23.290Z,48.50
2018-02-17T20:42:53.428Z,41.67
2018-02-17T20:45:23.252Z,51.33
2018-02-17T20:47:53.087Z,54.83
2018-02-17T20:50:22.878Z,50.43
2018-02-17T20:52:52.803Z,56.67
2018-02-17T20:55:23.521Z,44.93
2018-02-17T20:57:53.288Z,64.23
2018-02-17T21:00:23.323Z,52.33
2018-02-17T21:02:53.509Z,41.27
2018-02-17T21:05:23.329Z,36.83
2018-02-17T21:07:53.164Z,43.23
2018-02-17T21:10:22.956Z,36.03
2018-02-17T21:12:53.354Z,33.47
2018-02-17T21:15:23.088Z,37.53
2018-02-17T21:17:52.819Z,40.77
2018-02-17T21:20:22.534Z,35.97
2018-02-17T21:22:52.638Z,39.00
2018-02-17T21:25:22.499Z,36.63
2018-02-17T21:27:52.230Z,41.73
2018-02-17T21:30:22.376Z,46.47
2018-02-17T21:32:52.690Z,50.33
2018-02-17T21:35:23.137Z,66.10
2018-02-17T21:37:53.390Z,58.60
2018-02-17T21:40:23.447Z,61.43
2018-02-17T21:42:53.140Z,63.50
2018-02-17T21:45:22.851Z,66.40
2018-02-17T21:47:53.114Z,63.53
2018-02-17T21:50:22.955Z,78.67
2018-02-17T21:52:52.841Z,64.50
2018-02-17T21:55:23.138Z,68.93
2018-02-17T21:57:52.868Z,71.00
2018-02-17T22:00:23.309Z,74.57
2018-02-17T22:02:53.568Z,72.57
2018-02-17T22:05:23.257Z,64.60
2018-02-17T22:07:53.118Z,65.43
2018-02-17T22:10:22.903Z,69.00
2018-02-17T22:12:52.774Z,69.27
2018-02-17T22:15:22.929Z,68.17
2018-02-17T22:17:52.684Z,68.60
2018-02-17T22:20:22.490Z,66.90
2018-02-17T22:22:52.216Z,68.27
2018-02-17T22:25:22.275Z,76.50
2018-02-17T22:27:51.984Z,86.80
2018-02-17T22:30:21.712Z,96.53
2018-02-17T22:32:52.191Z,91.30
2018-02-17T22:35:22.929Z,90.73
2018-02-17T22:37:53.579Z,84.17
2018-02-17T22:40:23.701Z,73.30
2018-02-17T22:42:54.090Z,76.43
2018-02-17T22:45:23.865Z,74.63
2018-02-17T22:47:54.303Z,77.03
2018-02-17T22:50:24.571Z,84.43
2018-02-17T22:52:54.922Z,80.03
2018-02-17T22:55:25.339Z,69.83
2018-02-17T22:57:55.105Z,72.50
2018-02-17T23:00:30.693Z,73.23
2018-02-17T23:03:00.622Z,76.43
2018-02-17T23:05:30.364Z,72.20
2018-02-17T23:08:01.350Z,66.67
2018-02-17T23:10:31.051Z,66.80
2018-02-17T23:13:00.817Z,63.00
2018-02-17T23:15:30.516Z,60.67
2018-02-17T23:18:00.292Z,58.57
2018-02-17T23:20:31.022Z,58.37
2018-02-17T23:23:02.226Z,62.13
2018-02-17T23:25:32.908Z,60.77
2018-02-17T23:28:03.489Z,60.63
2018-02-17T23:30:33.235Z,60.00
2018-02-17T23:33:03.378Z,60.93
2018-02-17T23:35:33.170Z,57.73
2018-02-17T23:38:03.249Z,59.40
2018-02-17T23:40:33.572Z,59.17
2018-02-17T23:43:03.351Z,57.87
2018-02-17T23:45:33.427Z,57.80
2018-02-17T23:48:03.582Z,57.37
2018-02-17T23:50:33.754Z,55.50
2018-02-17T23:53:03.734Z,60.60
2018-02-17T23:55:34.148Z,55.30
2018-02-17T23:58:03.850Z,53.70
